Time;durP1;ratioP1;P1;durP2;ratioP2;P2;SDS_P1;SDS_P2;PMS_P1;PMS_P2;Temp;Humidity;BMP_temperature;BMP_pressure;BME280_temperature;BME280_humidity;BME280_pressure;Samples;Min_cycle;Max_cycle;Signal;HPM_P1;HPM_P2
2021/07/21 00:01:17;;;;;;;8.20;7.07;;;19.70;59.30;;;;;;5076095;28;20460;-70
2021/07/21 00:03:44;;;;;;;7.97;7.17;;;19.70;59.30;;;;;;5076046;28;20812;-71
2021/07/21 00:06:11;;;;;;;8.00;7.20;;;19.60;59.30;;;;;;5075923;28;20451;-71
2021/07/21 00:08:38;;;;;;;11.10;7.40;;;19.60;59.50;;;;;;5075542;28;20986;-70
2021/07/21 00:13:50;;;;;;;10.47;7.57;;;19.60;59.60;;;;;;5075953;28;20890;-70
2021/07/21 00:16:19;;;;;;;8.87;6.70;;;19.40;59.50;;;;;;5075766;28;20441;-70
2021/07/21 00:18:51;;;;;;;8.53;7.70;;;19.50;59.80;;;;;;5075706;28;20514;-69
2021/07/21 00:21:23;;;;;;;7.60;6.80;;;19.40;60.40;;;;;;5075541;28;20465;-71
2021/07/21 00:23:50;;;;;;;8.30;6.63;;;19.30;59.80;;;;;;5075599;28;20445;-70
2021/07/21 00:26:16;;;;;;;7.37;6.00;;;19.30;60.50;;;;;;5075280;28;20948;-71
2021/07/21 00:28:43;;;;;;;10.23;6.20;;;19.30;60.10;;;;;;5075455;28;20479;-71
2021/07/21 00:31:15;;;;;;;6.70;5.93;;;19.30;59.90;;;;;;5075380;28;20468;-69
2021/07/21 00:33:42;;;;;;;7.00;5.60;;;19.20;59.90;;;;;;5075414;28;20764;-70
2021/07/21 00:36:08;;;;;;;8.20;7.40;;;19.20;60.00;;;;;;5075342;28;20444;-70
2021/07/21 00:38:35;;;;;;;7.50;6.70;;;19.20;60.30;;;;;;5075316;28;20787;-70
2021/07/21 00:41:02;;;;;;;7.57;6.30;;;19.20;60.40;;;;;;5075208;28;20465;-70
2021/07/21 00:43:29;;;;;;;9.73;7.43;;;19.20;60.50;;;;;;5075204;28;20452;-69
2021/07/21 00:45:56;;;;;;;9.30;7.17;;;19.10;60.60;;;;;;5075173;28;20444;-70
2021/07/21 00:48:24;;;;;;;7.73;6.90;;;19.10;60.90;;;;;;5075051;28;20480;-70
2021/07/21 00:50:54;;;;;;;7.90;7.00;;;19.10;60.80;;;;;;5074999;28;20469;-70
2021/07/21 00:53:20;;;;;;;11.97;7.23;;;19.00;60.80;;;;;;5075494;28;20455;-70
2021/07/21 00:55:48;;;;;;;9.37;7.00;;;19.00;61.10;;;;;;5074592;28;20448;-69
2021/07/21 00:58:15;;;;;;;9.43;7.00;;;19.00;61.40;;;;;;5074832;28;20498;-69
2021/07/21 01:00:42;;;;;;;7.97;6.67;;;19.00;61.60;;;;;;5074771;28;20465;-70
2021/07/21 01:03:09;;;;;;;7.70;6.70;;;18.90;61.60;;;;;;5073872;28;20810;-70
2021/07/21 01:05:42;;;;;;;8.50;6.70;;;18.90;61.40;;;;;;5074719;28;20852;-69
2021/07/21 01:08:09;;;;;;;7.83;6.27;;;18.80;61.60;;;;;;5075166;28;20490;-71
2021/07/21 01:10:37;;;;;;;9.43;6.77;;;18.80;61.70;;;;;;5074522;28;20512;-71
2021/07/21 01:13:12;;;;;;;10.73;6.63;;;18.80;61.70;;;;;;5074245;28;20958;-71
2021/07/21 01:15:45;;;;;;;8.60;6.53;;;18.70;61.70;;;;;;5074576;28;20435;-71
2021/07/21 01:18:17;;;;;;;9.70;6.30;;;18.70;62.20;;;;;;5074529;28;20849;-71
2021/07/21 01:21:08;;;;;;;6.43;5.60;;;18.70;62.20;;;;;;5074828;28;20464;-71
2021/07/21 01:23:55;;;;;;;6.50;5.90;;;18.70;62.30;;;;;;5074162;28;20783;-71
2021/07/21 01:26:26;;;;;;;7.87;6.77;;;18.60;62.30;;;;;;5073942;28;20437;-71
2021/07/21 01:28:56;;;;;;;6.43;5.70;;;18.60;62.40;;;;;;5074300;28;20495;-71
2021/07/21 01:31:29;;;;;;;8.70;6.63;;;18.60;62.50;;;;;;5074468;28;20464;-70
2021/07/21 01:33:58;;;;;;;9.77;6.43;;;18.60;62.40;;;;;;5074270;28;20507;-70
2021/07/21 01:36:27;;;;;;;9.30;6.13;;;18.50;62.70;;;;;;5074213;28;20449;-70
2021/07/21 01:38:56;;;;;;;7.63;6.67;;;18.50;62.70;;;;;;5074154;28;20441;-70
2021/07/21 01:41:28;;;;;;;5.57;5.07;;;18.50;62.70;;;;;;5073709;28;20469;-71
2021/07/21 01:44:00;;;;;;;6.90;5.70;;;18.40;62.60;;;;;;5073805;28;20421;-71
2021/07/21 01:46:29;;;;;;;10.63;7.27;;;18.40;62.60;;;;;;5074050;28;20429;-71
2021/07/21 01:48:59;;;;;;;10.73;6.27;;;18.40;62.80;;;;;;5073688;28;20476;-71
2021/07/21 01:51:26;;;;;;;9.03;6.57;;;18.40;63.10;;;;;;5073596;28;20494;-71
2021/07/21 01:53:54;;;;;;;8.07;7.30;;;18.40;63.70;;;;;;5073612;28;20440;-71
2021/07/21 01:56:22;;;;;;;12.27;6.83;;;18.30;63.40;;;;;;5073938;28;20451;-71
2021/07/21 01:58:52;;;;;;;7.73;6.50;;;18.30;63.90;;;;;;5073941;28;20436;-71
2021/07/21 02:01:21;;;;;;;9.10;6.43;;;18.30;64.20;;;;;;5073778;28;20468;-71
2021/07/21 02:03:49;;;;;;;7.00;5.53;;;18.30;64.20;;;;;;5073726;28;20472;-71
2021/07/21 02:06:17;;;;;;;6.33;4.87;;;18.20;63.90;;;;;;5073703;28;20449;-71
2021/07/21 02:08:44;;;;;;;7.30;5.10;;;18.10;63.40;;;;;;5073611;28;20449;-71
2021/07/21 02:11:11;;;;;;;7.17;6.30;;;18.10;63.40;;;;;;5073535;28;20476;-72
2021/07/21 02:13:38;;;;;;;6.50;5.60;;;18.10;63.60;;;;;;5073312;28;20448;-70
2021/07/21 02:16:06;;;;;;;6.40;5.57;;;18.00;63.50;;;;;;5073410;28;20451;-69
2021/07/21 02:18:36;;;;;;;9.03;6.50;;;18.00;63.50;;;;;;5073582;28;20467;-71
2021/07/21 02:21:06;;;;;;;6.33;5.63;;;17.90;63.90;;;;;;5073007;28;20461;-71
2021/07/21 02:23:36;;;;;;;10.30;5.07;;;17.90;63.70;;;;;;5073583;28;20420;-71
2021/07/21 02:26:03;;;;;;;6.33;5.37;;;17.90;63.90;;;;;;5073630;28;20519;-71
2021/07/21 02:28:30;;;;;;;7.80;7.10;;;17.80;63.80;;;;;;5073540;28;20448;-71
2021/07/21 02:31:00;;;;;;;8.90;6.63;;;17.80;64.10;;;;;;5073247;28;20810;-71
2021/07/21 02:33:32;;;;;;;9.30;7.27;;;17.80;65.10;;;;;;5073567;28;20838;-70
2021/07/21 02:36:00;;;;;;;7.70;6.67;;;17.80;64.60;;;;;;5073521;28;20489;-71
2021/07/21 02:38:27;;;;;;;7.57;6.80;;;17.70;65.40;;;;;;5073388;28;20494;-71
2021/07/21 02:40:55;;;;;;;8.27;6.57;;;17.70;64.70;;;;;;5073117;28;20977;-71
2021/07/21 02:43:21;;;;;;;6.87;6.20;;;17.70;64.90;;;;;;5073367;28;20445;-71
2021/07/21 02:45:48;;;;;;;8.70;6.00;;;17.70;64.80;;;;;;5073478;28;20443;-71
2021/07/21 02:48:15;;;;;;;7.13;6.47;;;17.60;64.90;;;;;;5073471;28;20444;-71
2021/07/21 02:50:44;;;;;;;9.57;6.63;;;17.60;64.90;;;;;;5073143;28;20492;-71
2021/07/21 02:53:16;;;;;;;9.97;6.30;;;17.60;65.00;;;;;;5072900;28;20938;-71
2021/07/21 02:55:49;;;;;;;10.13;6.57;;;17.60;65.20;;;;;;5074070;28;20435;-71
2021/07/21 02:58:27;;;;;;;10.47;7.07;;;17.50;66.10;;;;;;5073324;28;20435;-71
2021/07/21 03:00:57;;;;;;;8.77;7.50;;;17.60;66.50;;;;;;5072861;28;20460;-71
2021/07/21 03:03:26;;;;;;;10.40;6.60;;;17.50;65.30;;;;;;5072871;28;20435;-70
2021/07/21 03:05:57;;;;;;;8.47;7.00;;;17.50;65.30;;;;;;5073183;28;20456;-70
2021/07/21 03:08:29;;;;;;;7.77;6.87;;;17.50;65.50;;;;;;5072805;28;20918;-70
2021/07/21 03:10:57;;;;;;;8.90;7.00;;;17.40;65.70;;;;;;5073097;28;20519;-69
2021/07/21 03:13:29;;;;;;;8.80;6.83;;;17.40;66.00;;;;;;5073103;28;20518;-70
2021/07/21 03:15:56;;;;;;;9.37;7.87;;;17.40;66.20;;;;;;5073104;28;20429;-70
2021/07/21 03:18:27;;;;;;;8.20;7.27;;;17.40;66.20;;;;;;5073065;28;20460;-70
2021/07/21 03:20:56;;;;;;;8.80;7.60;;;17.40;66.40;;;;;;5072951;28;20506;-71
2021/07/21 03:23:26;;;;;;;8.47;6.60;;;17.40;66.50;;;;;;5072540;28;20456;-70
2021/07/21 03:25:55;;;;;;;8.10;7.30;;;17.40;66.70;;;;;;5074431;28;20811;-70
2021/07/21 03:28:24;;;;;;;7.80;7.10;;;17.40;66.90;;;;;;5076516;28;20441;-70
2021/07/21 03:30:52;;;;;;;7.80;7.10;;;17.40;66.70;;;;;;5076383;28;20662;-71
2021/07/21 03:33:20;;;;;;;8.27;6.80;;;17.40;66.50;;;;;;5076447;28;20505;-70
2021/07/21 03:35:48;;;;;;;8.30;7.00;;;17.30;66.60;;;;;;5076447;28;20444;-70
2021/07/21 03:38:16;;;;;;;7.93;7.00;;;17.30;66.60;;;;;;5076399;28;20437;-71
2021/07/21 03:40:46;;;;;;;10.20;7.83;;;17.40;66.70;;;;;;5076244;28;20470;-71
2021/07/21 03:43:13;;;;;;;8.53;7.50;;;17.30;66.60;;;;;;5076254;28;20441;-71
2021/07/21 03:45:40;;;;;;;8.83;7.67;;;17.30;66.70;;;;;;5075987;28;20949;-70
2021/07/21 03:48:08;;;;;;;9.70;7.17;;;17.30;67.00;;;;;;5075973;28;20930;-71
2021/07/21 03:50:35;;;;;;;7.90;6.83;;;17.30;67.20;;;;;;5076002;28;20531;-71
2021/07/21 03:53:03;;;;;;;8.80;6.57;;;17.20;67.40;;;;;;5076096;28;20472;-70
2021/07/21 03:55:31;;;;;;;8.57;7.10;;;17.20;67.60;;;;;;5076033;28;20451;-70
2021/07/21 03:57:59;;;;;;;8.77;7.43;;;17.20;67.70;;;;;;5076048;28;20446;-70
2021/07/21 04:00:26;;;;;;;6.83;6.07;;;17.20;67.60;;;;;;5075965;28;20476;-70
2021/07/21 04:02:56;;;;;;;7.87;6.60;;;17.10;67.20;;;;;;5075983;28;20444;-70
2021/07/21 04:05:25;;;;;;;7.00;6.13;;;17.10;66.90;;;;;;5075658;28;20498;-71
2021/07/21 04:07:54;;;;;;;7.13;6.20;;;17.10;66.80;;;;;;5075842;28;20440;-70
2021/07/21 04:10:22;;;;;;;9.40;7.03;;;17.10;66.90;;;;;;5075728;28;20484;-70
2021/07/21 04:12:53;;;;;;;6.10;5.50;;;17.10;66.80;;;;;;5075926;28;20421;-70
2021/07/21 04:15:22;;;;;;;6.20;5.60;;;17.10;67.30;;;;;;5075921;28;20847;-70
2021/07/21 04:17:52;;;;;;;9.03;6.43;;;17.00;67.10;;;;;;5075546;28;20961;-72
2021/07/21 04:20:19;;;;;;;9.30;5.73;;;17.10;67.40;;;;;;5075972;28;20476;-71
2021/07/21 04:22:49;;;;;;;7.40;6.60;;;17.00;67.30;;;;;;5075217;28;20950;-71
2021/07/21 04:25:17;;;;;;;7.70;6.20;;;17.00;67.40;;;;;;5075569;28;20449;-71
2021/07/21 04:27:45;;;;;;;7.67;5.70;;;17.00;67.50;;;;;;5075573;28;20436;-70
2021/07/21 04:30:13;;;;;;;6.40;5.80;;;17.00;67.70;;;;;;5075295;28;20492;-71
2021/07/21 04:32:42;;;;;;;11.70;6.20;;;17.00;67.80;;;;;;5075421;28;20448;-71
2021/07/21 04:35:11;;;;;;;6.97;6.20;;;17.00;68.20;;;;;;5075442;28;20436;-71
2021/07/21 04:37:40;;;;;;;7.50;5.90;;;17.00;68.50;;;;;;5075113;28;20459;-71
2021/07/21 04:40:08;;;;;;;9.77;6.53;;;17.10;68.90;;;;;;5075338;28;20492;-71
2021/07/21 04:42:35;;;;;;;8.40;7.50;;;17.10;69.10;;;;;;5075323;28;20429;-71
2021/07/21 04:45:02;;;;;;;12.10;6.27;;;17.10;69.20;;;;;;5075183;28;20440;-71
2021/07/21 04:47:28;;;;;;;6.80;6.10;;;17.10;69.40;;;;;;5075117;28;20445;-71
2021/07/21 04:50:00;;;;;;;7.47;6.50;;;17.10;69.70;;;;;;5075042;28;20480;-71
2021/07/21 04:52:27;;;;;;;11.93;7.37;;;17.10;69.90;;;;;;5075088;28;20429;-71
2021/07/21 04:54:54;;;;;;;8.27;6.83;;;17.10;70.10;;;;;;5075024;28;20440;-71
2021/07/21 04:57:22;;;;;;;8.00;6.80;;;17.10;70.30;;;;;;5074923;28;20849;-71
2021/07/21 04:59:49;;;;;;;8.70;6.27;;;17.10;70.50;;;;;;5074876;28;20544;-71
2021/07/21 05:02:16;;;;;;;7.77;6.77;;;17.20;71.30;;;;;;5074865;28;20847;-71
2021/07/21 05:04:43;;;;;;;7.93;6.60;;;17.20;71.60;;;;;;5074854;28;20476;-71
2021/07/21 05:07:12;;;;;;;8.37;7.53;;;17.20;72.20;;;;;;5074751;28;20440;-71
2021/07/21 05:09:39;;;;;;;8.50;7.30;;;17.30;72.80;;;;;;5074313;28;20455;-71
2021/07/21 05:12:07;;;;;;;7.80;6.97;;;17.30;73.10;;;;;;5074580;28;20445;-72
2021/07/21 05:14:33;;;;;;;8.73;7.83;;;17.40;73.70;;;;;;5074495;28;20448;-71
2021/07/21 05:17:00;;;;;;;7.43;6.73;;;17.40;73.90;;;;;;5074215;28;20453;-71
2021/07/21 05:19:27;;;;;;;10.67;7.23;;;17.50;74.50;;;;;;5074469;28;20448;-71
2021/07/21 05:21:53;;;;;;;7.50;6.70;;;17.60;74.90;;;;;;5073845;28;20491;-72
2021/07/21 05:24:22;;;;;;;8.10;7.03;;;17.60;75.30;;;;;;5074406;28;20444;-71
2021/07/21 05:26:49;;;;;;;8.37;7.50;;;17.70;75.50;;;;;;5074054;28;20878;-71
2021/07/21 05:29:16;;;;;;;7.60;6.80;;;17.70;75.70;;;;;;5074295;28;20453;-71
2021/07/21 05:31:43;;;;;;;8.17;6.50;;;17.80;76.00;;;;;;5073790;28;20829;-71
2021/07/21 05:34:10;;;;;;;6.57;5.97;;;17.90;76.30;;;;;;5074213;28;20464;-71
2021/07/21 05:36:38;;;;;;;10.27;6.07;;;17.90;76.40;;;;;;5074216;28;20429;-71
2021/07/21 05:39:06;;;;;;;7.00;6.30;;;18.00;76.30;;;;;;5074132;28;20444;-71
2021/07/21 05:41:34;;;;;;;10.07;7.00;;;18.10;76.10;;;;;;5074197;28;20457;-71
2021/07/21 05:44:01;;;;;;;7.77;6.93;;;18.10;75.60;;;;;;5074177;28;20444;-72
2021/07/21 05:46:28;;;;;;;6.77;6.07;;;18.20;75.80;;;;;;5073719;28;20930;-71
2021/07/21 05:48:55;;;;;;;6.47;5.87;;;18.30;75.80;;;;;;5073370;28;20490;-71
2021/07/21 05:51:22;;;;;;;8.63;6.27;;;18.40;75.50;;;;;;5073789;28;20492;-71
2021/07/21 05:53:48;;;;;;;7.10;6.07;;;18.40;75.10;;;;;;5073668;28;20444;-71
2021/07/21 05:56:16;;;;;;;9.80;7.10;;;18.50;74.90;;;;;;5073615;28;20479;-71
2021/07/21 05:58:44;;;;;;;8.47;6.37;;;18.60;74.60;;;;;;5073825;28;20445;-71
2021/07/21 06:01:11;;;;;;;7.10;6.40;;;18.70;74.10;;;;;;5073731;28;20456;-71
2021/07/21 06:03:38;;;;;;;6.60;6.00;;;18.80;73.50;;;;;;5073801;28;20437;-71
2021/07/21 06:06:04;;;;;;;8.70;7.27;;;18.90;73.60;;;;;;5074030;28;20852;-71
2021/07/21 06:08:31;;;;;;;12.50;8.30;;;18.90;73.20;;;;;;5073730;28;20441;-71
2021/07/21 06:10:58;;;;;;;8.70;7.70;;;19.10;72.80;;;;;;5073527;28;20491;-71
2021/07/21 06:13:25;;;;;;;10.90;7.60;;;19.10;71.40;;;;;;5073738;28;20543;-71
2021/07/21 06:15:53;;;;;;;10.60;7.77;;;19.20;71.10;;;;;;5073712;28;20858;-71
2021/07/21 06:18:20;;;;;;;12.27;8.70;;;19.30;71.00;;;;;;5073308;28;20456;-71
2021/07/21 06:20:47;;;;;;;12.10;9.20;;;19.40;69.50;;;;;;5073442;28;20460;-71
2021/07/21 06:23:14;;;;;;;10.40;9.30;;;19.40;68.60;;;;;;5073226;28;20456;-71
2021/07/21 06:25:40;;;;;;;11.53;8.93;;;19.50;67.30;;;;;;5073234;28;20934;-71
2021/07/21 06:28:07;;;;;;;9.07;7.90;;;19.50;67.20;;;;;;5073486;28;20440;-71
2021/07/21 06:30:34;;;;;;;9.93;8.93;;;19.60;67.20;;;;;;5073488;28;20549;-71
2021/07/21 06:33:03;;;;;;;9.10;8.13;;;19.70;68.00;;;;;;5073336;28;21035;-71
2021/07/21 06:35:29;;;;;;;11.17;8.10;;;19.80;67.80;;;;;;5073791;28;20434;-71
2021/07/21 06:37:56;;;;;;;9.00;8.10;;;19.90;68.30;;;;;;5073539;28;20451;-71
2021/07/21 06:40:23;;;;;;;10.93;8.50;;;20.10;68.30;;;;;;5073191;28;20464;-71
2021/07/21 06:42:49;;;;;;;11.43;8.50;;;20.10;63.60;;;;;;5073270;28;20928;-71
2021/07/21 06:45:16;;;;;;;8.57;7.20;;;20.30;63.50;;;;;;5073672;28;20455;-71
2021/07/21 06:47:43;;;;;;;11.60;9.17;;;20.40;64.00;;;;;;5073476;28;20498;-71
2021/07/21 06:50:11;;;;;;;11.03;8.50;;;20.60;63.20;;;;;;5073117;28;20514;-71
2021/07/21 06:52:38;;;;;;;9.50;7.60;;;20.70;60.80;;;;;;5072933;28;20965;-71
2021/07/21 06:55:06;;;;;;;11.20;9.10;;;20.80;60.60;;;;;;5073779;28;20445;-71
2021/07/21 06:57:33;;;;;;;12.30;9.57;;;21.00;59.80;;;;;;5073152;28;20456;-71
2021/07/21 06:59:59;;;;;;;13.30;9.73;;;21.10;59.10;;;;;;5074810;28;20449;-71
2021/07/21 07:02:26;;;;;;;13.10;8.70;;;21.10;58.60;;;;;;5077217;28;20477;-71
2021/07/21 07:04:54;;;;;;;12.10;8.60;;;21.30;58.30;;;;;;5076852;28;20815;-71
2021/07/21 07:07:22;;;;;;;9.90;7.47;;;21.40;57.90;;;;;;5077071;28;20444;-71
2021/07/21 07:09:48;;;;;;;11.07;7.97;;;21.50;58.00;;;;;;5076612;28;20956;-71
2021/07/21 07:12:15;;;;;;;7.80;7.00;;;21.70;57.50;;;;;;5076836;28;21005;-71
2021/07/21 07:14:42;;;;;;;10.23;6.63;;;21.80;56.40;;;;;;5076853;28;20444;-71
2021/07/21 07:17:09;;;;;;;7.80;7.00;;;22.00;56.50;;;;;;5076763;28;20440;-72
2021/07/21 07:19:35;;;;;;;6.97;6.27;;;22.20;56.80;;;;;;5076498;28;20914;-71
2021/07/21 07:22:02;;;;;;;11.80;6.63;;;22.40;56.20;;;;;;5076423;28;20852;-71
2021/07/21 07:24:31;;;;;;;7.47;6.13;;;22.60;54.60;;;;;;5076714;28;20440;-71
2021/07/21 07:26:58;;;;;;;7.10;5.13;;;22.80;54.80;;;;;;5076240;28;20930;-71
2021/07/21 07:29:25;;;;;;;9.30;6.13;;;23.00;54.90;;;;;;5076561;28;20451;-71
2021/07/21 07:31:52;;;;;;;9.40;5.70;;;23.20;53.10;;;;;;5076377;28;20845;-71
2021/07/21 07:34:19;;;;;;;6.77;5.23;;;23.50;53.20;;;;;;5076518;28;20868;-71
2021/07/21 07:36:47;;;;;;;6.43;5.53;;;23.60;53.00;;;;;;5076468;28;20448;-71
2021/07/21 07:39:14;;;;;;;7.47;5.17;;;23.80;52.50;;;;;;5076060;28;20497;-71
2021/07/21 07:41:42;;;;;;;7.23;5.50;;;24.00;51.30;;;;;;5076267;28;20460;-71
2021/07/21 07:44:11;;;;;;;8.47;4.47;;;24.10;50.20;;;;;;5076308;28;20527;-72
2021/07/21 07:46:38;;;;;;;4.93;4.53;;;24.30;49.80;;;;;;5076250;28;20491;-72
2021/07/21 07:49:06;;;;;;;4.80;4.00;;;24.50;49.80;;;;;;5076221;28;20474;-71
2021/07/21 07:51:33;;;;;;;4.20;3.80;;;24.70;49.90;;;;;;5076045;28;20480;-71
2021/07/21 07:54:01;;;;;;;5.17;4.07;;;25.00;49.90;;;;;;5076130;28;20536;-71
2021/07/21 07:56:28;;;;;;;5.30;3.70;;;25.20;49.50;;;;;;5076091;28;20449;-71
2021/07/21 07:58:56;;;;;;;6.50;4.00;;;25.50;49.00;;;;;;5076060;28;20441;-71
2021/07/21 08:01:23;;;;;;;5.07;4.33;;;25.60;44.70;;;;;;5075642;28;20950;-71
2021/07/21 08:03:50;;;;;;;4.10;3.63;;;25.80;45.00;;;;;;5076020;28;20429;-71
2021/07/21 08:06:17;;;;;;;4.20;3.80;;;25.90;44.10;;;;;;5075939;28;20441;-71
2021/07/21 08:08:44;;;;;;;4.30;3.70;;;26.00;44.80;;;;;;5075916;28;20459;-71
2021/07/21 08:11:12;;;;;;;4.20;3.90;;;26.20;45.70;;;;;;5075124;28;20484;-71
2021/07/21 08:13:39;;;;;;;5.30;4.37;;;26.40;45.20;;;;;;5075768;28;20547;-71
2021/07/21 08:16:08;;;;;;;5.57;3.80;;;26.60;43.20;;;;;;5075738;28;20444;-71
2021/07/21 08:18:35;;;;;;;3.63;3.33;;;26.80;42.20;;;;;;5075394;28;20934;-71
2021/07/21 08:21:02;;;;;;;5.23;4.10;;;26.80;41.70;;;;;;5075394;28;20461;-71
2021/07/21 08:23:29;;;;;;;4.40;3.70;;;26.90;42.30;;;;;;5075538;28;20449;-71
2021/07/21 08:25:55;;;;;;;3.77;3.47;;;27.10;41.70;;;;;;5075563;28;20435;-71
2021/07/21 08:28:22;;;;;;;3.73;3.10;;;27.20;42.60;;;;;;5075497;28;20445;-71
2021/07/21 08:30:49;;;;;;;4.50;3.63;;;27.40;42.90;;;;;;5075488;28;20484;-71
2021/07/21 08:33:18;;;;;;;3.93;3.50;;;27.60;43.20;;;;;;5075458;28;20444;-71
2021/07/21 08:35:45;;;;;;;4.10;3.80;;;27.80;42.60;;;;;;5075387;28;20447;-71
2021/07/21 08:38:12;;;;;;;4.00;3.43;;;28.00;42.10;;;;;;5075312;28;20445;-71
2021/07/21 08:40:41;;;;;;;3.80;3.37;;;28.30;41.10;;;;;;5075170;28;20466;-71
2021/07/21 08:43:09;;;;;;;4.17;3.70;;;28.40;40.40;;;;;;5075226;28;20432;-72
2021/07/21 08:45:36;;;;;;;4.83;4.10;;;28.60;40.90;;;;;;5075145;28;20472;-71
2021/07/21 08:48:03;;;;;;;5.20;3.47;;;28.80;40.60;;;;;;5075118;28;20484;-72
2021/07/21 08:50:31;;;;;;;3.50;3.20;;;29.00;40.20;;;;;;5074966;28;20496;-71
2021/07/21 08:52:58;;;;;;;4.33;3.80;;;29.10;39.60;;;;;;5074677;28;20488;-72
2021/07/21 08:55:25;;;;;;;3.90;3.60;;;29.30;39.50;;;;;;5074659;28;20444;-72
2021/07/21 08:57:53;;;;;;;4.27;3.97;;;29.40;35.20;;;;;;5074620;28;20961;-72
2021/07/21 09:00:21;;;;;;;4.23;3.70;;;29.40;35.30;;;;;;5074776;28;20464;-72
2021/07/21 09:02:48;;;;;;;3.80;3.40;;;29.40;34.00;;;;;;5074535;28;20429;-71
2021/07/21 09:05:16;;;;;;;4.00;3.60;;;29.50;35.30;;;;;;5074806;28;20448;-71
2021/07/21 09:07:45;;;;;;;3.70;3.40;;;29.60;37.00;;;;;;5074775;28;20476;-72
2021/07/21 09:10:14;;;;;;;7.07;3.80;;;29.80;37.30;;;;;;5074725;28;20471;-72
2021/07/21 09:12:42;;;;;;;3.80;3.50;;;30.10;37.30;;;;;;5074246;28;20472;-72
2021/07/21 09:15:11;;;;;;;3.67;3.33;;;30.30;37.00;;;;;;5074604;28;20835;-71
2021/07/21 09:17:37;;;;;;;4.27;3.97;;;30.60;36.50;;;;;;5074643;28;20451;-72
2021/07/21 09:20:16;;;;;;;3.27;3.07;;;30.70;36.60;;;;;;5074549;28;20484;-72
2021/07/21 09:22:44;;;;;;;4.10;3.70;;;31.00;34.70;;;;;;5073615;28;20502;-71
2021/07/21 09:25:14;;;;;;;3.50;3.23;;;31.10;31.80;;;;;;5074151;28;20786;-72
2021/07/21 09:27:43;;;;;;;6.60;3.80;;;31.20;31.70;;;;;;5074286;28;20452;-72
2021/07/21 09:30:12;;;;;;;4.37;3.70;;;31.30;31.40;;;;;;5073905;28;20839;-71
2021/07/21 09:32:56;;;;;;;4.67;4.30;;;31.30;30.40;;;;;;5073900;28;20989;-72
2021/07/21 09:35:24;;;;;;;3.87;3.57;;;31.40;32.00;;;;;;5074037;28;20776;-71
2021/07/21 09:37:52;;;;;;;4.63;4.17;;;31.50;33.70;;;;;;5074408;28;20452;-72
2021/07/21 09:40:19;;;;;;;5.20;4.70;;;31.80;34.30;;;;;;5074244;28;20467;-72
2021/07/21 09:42:46;;;;;;;4.10;3.70;;;31.90;34.00;;;;;;5074905;28;20440;-72
2021/07/21 09:45:14;;;;;;;4.10;3.73;;;32.10;33.50;;;;;;5074056;28;20441;-72
2021/07/21 09:47:49;;;;;;;4.13;3.80;;;32.30;32.90;;;;;;5073711;28;20491;-72
2021/07/21 09:50:20;;;;;;;3.97;3.67;;;32.50;32.60;;;;;;5073942;28;20472;-72
2021/07/21 09:52:48;;;;;;;5.03;4.53;;;32.70;32.60;;;;;;5074037;28;20468;-72
2021/07/21 09:55:17;;;;;;;4.30;3.90;;;32.90;32.00;;;;;;5073976;28;20444;-71
2021/07/21 09:57:56;;;;;;;4.40;4.00;;;33.20;31.30;;;;;;5073612;28;20796;-72
2021/07/21 10:00:25;;;;;;;5.10;4.60;;;33.40;31.20;;;;;;5073487;28;20463;-72
2021/07/21 10:03:05;;;;;;;5.33;4.83;;;33.60;30.00;;;;;;5073754;28;20442;-72
2021/07/21 10:05:32;;;;;;;4.10;3.80;;;33.90;29.90;;;;;;5073810;28;20442;-72
2021/07/21 10:08:02;;;;;;;4.50;4.10;;;34.10;29.00;;;;;;5073771;28;20424;-72
2021/07/21 10:10:31;;;;;;;10.90;5.60;;;34.40;29.30;;;;;;5073680;28;20512;-72
2021/07/21 10:13:01;;;;;;;10.70;6.23;;;34.70;29.30;;;;;;5073460;28;20472;-72
2021/07/21 10:15:28;;;;;;;7.73;5.00;;;34.90;29.50;;;;;;5073485;28;20444;-72
2021/07/21 10:18:10;;;;;;;4.70;4.30;;;35.30;29.50;;;;;;5073211;28;20788;-72
2021/07/21 10:20:38;;;;;;;6.00;5.30;;;35.60;28.20;;;;;;5073425;28;20467;-72
2021/07/21 10:23:04;;;;;;;6.00;5.37;;;35.90;28.10;;;;;;5073155;28;20527;-72
2021/07/21 10:25:33;;;;;;;5.90;5.20;;;36.20;25.60;;;;;;5073487;28;20435;-72
2021/07/21 10:28:00;;;;;;;4.40;4.10;;;36.30;23.70;;;;;;5073198;28;20458;-72
2021/07/21 10:30:27;;;;;;;5.03;4.53;;;36.30;23.50;;;;;;5073106;28;20965;-72
2021/07/21 10:32:56;;;;;;;5.63;5.10;;;36.30;24.40;;;;;;5073234;28;20480;-71
2021/07/21 10:35:24;;;;;;;6.33;5.70;;;36.10;25.30;;;;;;5072861;28;20937;-72
2021/07/21 10:37:52;;;;;;;5.50;4.90;;;36.20;26.00;;;;;;5073050;28;20902;-72
2021/07/21 10:40:20;;;;;;;5.40;5.00;;;36.40;26.20;;;;;;5073101;28;20525;-72
2021/07/21 10:42:51;;;;;;;5.83;5.33;;;36.80;26.40;;;;;;5073383;28;20424;-72
2021/07/21 10:45:20;;;;;;;5.70;5.10;;;37.30;26.40;;;;;;5073073;28;20938;-72
2021/07/21 10:47:48;;;;;;;6.53;5.90;;;37.70;25.80;;;;;;5073313;28;20202;-72
2021/07/21 10:50:37;;;;;;;5.70;5.20;;;37.90;24.70;;;;;;5073153;28;20226;-72
2021/07/21 10:53:44;;;;;;;6.13;5.23;;;37.90;24.50;;;;;;5073201;28;20312;-71
2021/07/21 10:59:19;;;;;;;6.70;6.10;;;38.90;23.90;;;;;;5072816;28;20221;-73
2021/07/21 11:01:47;;;;;;;6.22;5.07;;;39.70;22.80;;;;;;5072750;28;20704;-71
2021/07/21 11:04:14;;;;;;;12.82;5.60;;;40.30;22.00;;;;;;5072896;28;20576;-71
2021/07/21 11:06:43;;;;;;;8.13;6.95;;;40.90;22.20;;;;;;5073846;28;20206;-71
2021/07/21 11:09:24;;;;;;;5.70;5.20;;;41.40;21.20;;;;;;5073127;28;20189;-71
2021/07/21 11:11:56;;;;;;;5.43;5.00;;;41.90;19.40;;;;;;5072848;28;20236;-71
2021/07/21 11:14:26;;;;;;;5.32;4.93;;;42.20;20.00;;;;;;5072917;28;20208;-70
2021/07/21 11:16:54;;;;;;;6.32;5.72;;;42.60;20.40;;;;;;5073074;28;20186;-71
2021/07/21 11:19:31;;;;;;;5.47;5.07;;;43.10;18.80;;;;;;5072912;28;20209;-71
2021/07/21 11:22:00;;;;;;;6.25;5.63;;;43.30;18.50;;;;;;5072602;28;20225;-71
2021/07/21 11:24:28;;;;;;;5.93;5.32;;;43.20;19.90;;;;;;5072948;28;20198;-71
2021/07/21 11:26:55;;;;;;;5.55;5.15;;;43.40;19.70;;;;;;5072973;28;20208;-71
2021/07/21 11:29:46;;;;;;;6.30;5.78;;;43.80;19.20;;;;;;5072977;28;20186;-73
2021/07/21 11:32:29;;;;;;;6.90;6.00;;;43.90;19.20;;;;;;5072595;28;20264;-73
2021/07/21 11:34:56;;;;;;;6.03;5.50;;;43.90;19.60;;;;;;5071299;28;20659;-73
2021/07/21 11:37:33;;;;;;;6.20;5.63;;;43.80;19.70;;;;;;5072721;28;20202;-71
2021/07/21 11:40:13;;;;;;;6.60;6.10;;;43.30;20.00;;;;;;5073323;28;20194;-72
2021/07/21 11:42:40;;;;;;;6.38;5.78;;;42.90;20.30;;;;;;5072627;28;20639;-71
2021/07/21 11:45:19;;;;;;;7.13;6.63;;;42.20;20.80;;;;;;5072846;28;20193;-71
2021/07/21 11:47:48;;;;;;;6.32;5.82;;;41.40;21.90;;;;;;5075532;28;20186;-71
2021/07/21 11:50:18;;;;;;;9.13;7.00;;;40.60;22.60;;;;;;5075991;28;20271;-72
2021/07/21 11:52:45;;;;;;;7.05;6.55;;;39.90;23.50;;;;;;5075872;28;20756;-71
2021/07/21 11:55:13;;;;;;;7.90;7.10;;;39.70;23.40;;;;;;5076122;28;20201;-72
2021/07/21 11:57:41;;;;;;;6.85;6.25;;;40.10;23.30;;;;;;5076044;28;20201;-72
2021/07/21 12:00:08;;;;;;;9.88;7.72;;;40.10;22.30;;;;;;5075954;28;20226;-72
2021/07/21 12:02:37;;;;;;;7.97;7.18;;;39.90;23.00;;;;;;5075984;28;20186;-72
2021/07/21 12:05:07;;;;;;;8.80;7.18;;;39.70;23.60;;;;;;5076014;28;20198;-72
2021/07/21 12:07:36;;;;;;;7.18;6.57;;;39.40;23.30;;;;;;5075965;28;20194;-72
2021/07/21 12:10:11;;;;;;;7.97;7.18;;;38.90;23.60;;;;;;5075357;28;20210;-72
2021/07/21 12:12:38;;;;;;;7.87;7.07;;;38.40;24.30;;;;;;5075824;28;20279;-72
2021/07/21 12:15:07;;;;;;;7.70;6.55;;;38.10;25.30;;;;;;5075856;28;20212;-70
2021/07/21 12:17:34;;;;;;;7.57;6.93;;;38.40;25.70;;;;;;5075310;28;20660;-70
2021/07/21 12:20:05;;;;;;;8.18;7.45;;;39.20;24.90;;;;;;5075605;28;20261;-73
2021/07/21 12:22:34;;;;;;;7.85;6.82;;;39.80;24.50;;;;;;5075301;28;20297;-73
2021/07/21 12:25:04;;;;;;;7.35;6.85;;;39.80;23.80;;;;;;5075617;28;20201;-71
2021/07/21 12:27:33;;;;;;;8.40;7.70;;;39.60;23.60;;;;;;5075449;28;20197;-71
2021/07/21 12:30:00;;;;;;;8.60;7.90;;;39.30;24.20;;;;;;5075153;28;20578;-71
2021/07/21 12:32:27;;;;;;;8.10;7.40;;;38.90;24.70;;;;;;5075094;28;20593;-71
2021/07/21 12:34:55;;;;;;;8.93;7.20;;;38.70;25.20;;;;;;5075557;28;20201;-71
2021/07/21 12:37:26;;;;;;;7.32;6.63;;;38.80;25.10;;;;;;5075166;28;20206;-71
2021/07/21 12:39:55;;;;;;;7.45;6.82;;;39.70;24.80;;;;;;5075368;28;20209;-71
2021/07/21 12:42:23;;;;;;;6.05;5.55;;;40.80;24.00;;;;;;5075326;28;20569;-73
2021/07/21 12:44:52;;;;;;;7.07;6.57;;;41.80;22.50;;;;;;5075164;28;20205;-72
2021/07/21 12:47:21;;;;;;;7.03;6.43;;;42.10;21.80;;;;;;5074932;28;20205;-72
2021/07/21 12:49:50;;;;;;;7.05;6.45;;;42.50;21.40;;;;;;5074579;28;20576;-73
2021/07/21 12:52:19;;;;;;;7.97;7.32;;;43.20;21.00;;;;;;5074895;28;20253;-72
2021/07/21 12:54:53;;;;;;;7.20;6.50;;;43.70;19.00;;;;;;5075034;28;20202;-72
2021/07/21 12:57:34;;;;;;;9.82;6.53;;;44.00;19.10;;;;;;5074905;28;20189;-72
2021/07/21 13:00:04;;;;;;;8.52;7.72;;;44.40;18.90;;;;;;5074701;28;20201;-71